createdAt,value
2023-05-14T00:00:39.776Z,3.75
2023-05-14T00:03:08.726Z,3.47
2023-05-14T00:05:36.464Z,3.75
2023-05-14T00:08:03.901Z,4.15
2023-05-14T00:10:31.352Z,3.03
2023-05-14T00:13:02.202Z,3.63
2023-05-14T00:15:30.498Z,3.08
2023-05-14T00:17:58.904Z,3.72
2023-05-14T00:20:27.784Z,3.50
2023-05-14T00:22:55.415Z,3.42
2023-05-14T00:25:22.851Z,3.10
2023-05-14T00:27:50.335Z,3.50
2023-05-14T00:30:17.983Z,3.63
2023-05-14T00:32:46.025Z,3.45
2023-05-14T00:35:13.508Z,3.33
2023-05-14T00:37:42.347Z,3.80
2023-05-14T00:40:12.778Z,3.28
2023-05-14T00:42:40.514Z,4.03
2023-05-14T00:45:09.978Z,3.38
2023-05-14T00:47:40.639Z,3.28
2023-05-14T00:50:09.603Z,3.20
2023-05-14T00:52:38.973Z,3.85
2023-05-14T00:55:09.581Z,3.55
2023-05-14T00:57:41.147Z,3.60
2023-05-14T01:00:10.000Z,3.42
2023-05-14T01:02:37.927Z,3.60
2023-05-14T01:05:08.528Z,2.83
2023-05-14T01:07:47.501Z,3.70
2023-05-14T01:10:29.412Z,3.42
2023-05-14T01:13:09.387Z,3.40
2023-05-14T01:15:39.222Z,3.28
2023-05-14T01:18:10.048Z,3.00
2023-05-14T01:20:38.228Z,3.85
2023-05-14T01:23:07.267Z,3.20
2023-05-14T01:25:37.752Z,3.65
2023-05-14T01:28:12.525Z,3.75
2023-05-14T01:33:14.490Z,2.92
2023-05-14T01:35:44.509Z,3.72
2023-05-14T01:38:16.371Z,3.92
2023-05-14T01:40:46.815Z,3.45
2023-05-14T01:43:15.899Z,3.05
2023-05-14T01:45:44.475Z,4.15
2023-05-14T01:50:39.392Z,3.70
2023-05-14T01:53:06.933Z,3.50
2023-05-14T01:55:35.716Z,3.85
2023-05-14T01:58:03.188Z,4.30
2023-05-14T02:00:31.447Z,3.25
2023-05-14T02:02:59.445Z,3.97
2023-05-14T02:05:26.960Z,4.07
2023-05-14T02:07:54.457Z,4.00
2023-05-14T02:10:22.049Z,3.53
2023-05-14T02:12:50.967Z,3.50
2023-05-14T02:15:18.434Z,3.72
2023-05-14T02:17:45.953Z,3.72
2023-05-14T02:20:14.142Z,3.75
2023-05-14T02:22:42.184Z,2.88
2023-05-14T02:25:10.688Z,4.30
2023-05-14T02:27:38.247Z,4.05
2023-05-14T02:30:08.505Z,4.30
2023-05-14T02:32:36.204Z,4.70
2023-05-14T02:35:04.107Z,5.35
2023-05-14T02:37:31.598Z,4.45
2023-05-14T02:39:59.302Z,4.75
2023-05-14T02:42:26.911Z,4.63
2023-05-14T02:44:54.554Z,4.45
2023-05-14T02:47:23.386Z,4.75
2023-05-14T02:49:50.957Z,4.22
2023-05-14T02:52:18.384Z,4.20
2023-05-14T02:54:45.904Z,4.47
2023-05-14T02:57:13.517Z,4.30
2023-05-14T02:59:41.387Z,4.53
2023-05-14T03:02:09.308Z,4.05
2023-05-14T03:04:38.630Z,4.00
2023-05-14T03:07:06.558Z,4.13
2023-05-14T03:09:35.046Z,4.50
2023-05-14T03:12:04.686Z,3.72
2023-05-14T03:14:32.378Z,4.15
2023-05-14T03:16:59.923Z,3.75
2023-05-14T03:19:27.496Z,4.35
2023-05-14T03:21:56.292Z,4.28
2023-05-14T03:24:23.739Z,3.88
2023-05-14T03:26:51.261Z,4.22
2023-05-14T03:29:18.826Z,4.28
2023-05-14T03:31:46.289Z,3.72
2023-05-14T03:34:14.047Z,4.45
2023-05-14T03:36:41.541Z,4.22
2023-05-14T03:39:10.375Z,3.95
2023-05-14T03:41:38.174Z,4.05
2023-05-14T03:44:06.268Z,4.00
2023-05-14T03:46:33.917Z,3.70
2023-05-14T03:49:01.590Z,4.18
2023-05-14T03:51:29.159Z,4.50
2023-05-14T03:53:57.936Z,3.88
2023-05-14T03:56:27.111Z,3.90
2023-05-14T03:58:54.538Z,4.38
2023-05-14T04:01:22.001Z,3.90
2023-05-14T04:03:49.591Z,4.00
2023-05-14T04:06:17.104Z,3.88
2023-05-14T04:08:44.634Z,4.35
2023-05-14T04:11:12.140Z,3.85
2023-05-14T04:13:40.958Z,4.45
2023-05-14T04:16:08.526Z,3.78
2023-05-14T04:18:36.155Z,4.38
2023-05-14T04:21:03.903Z,4.60
2023-05-14T04:23:32.225Z,4.03
2023-05-14T04:26:00.001Z,3.88
2023-05-14T04:28:27.722Z,4.32
2023-05-14T04:30:56.689Z,4.43
2023-05-14T04:33:24.138Z,3.90
2023-05-14T04:35:52.105Z,3.67
2023-05-14T04:38:19.578Z,4.28
2023-05-14T04:40:47.001Z,4.32
2023-05-14T04:43:14.710Z,4.80
2023-05-14T04:45:43.055Z,4.10
2023-05-14T04:48:12.154Z,4.40
2023-05-14T04:50:39.601Z,4.30
2023-05-14T04:53:07.087Z,4.15
2023-05-14T04:55:34.554Z,4.50
2023-05-14T04:58:02.305Z,4.93
2023-05-14T05:00:30.454Z,3.70
2023-05-14T05:02:57.912Z,4.03
2023-05-14T05:05:26.871Z,3.50
2023-05-14T05:07:54.698Z,4.50
2023-05-14T05:10:22.434Z,2.95
2023-05-14T05:12:50.044Z,4.15
2023-05-14T05:15:17.579Z,4.35
2023-05-14T05:17:45.072Z,3.47
2023-05-14T05:20:13.795Z,4.43
2023-05-14T05:22:42.596Z,4.20
2023-05-14T05:25:11.998Z,3.90
2023-05-14T05:27:39.645Z,3.92
2023-05-14T05:30:08.543Z,4.43
2023-05-14T05:32:36.087Z,3.83
2023-05-14T05:35:03.984Z,4.68
2023-05-14T05:37:31.664Z,3.63
2023-05-14T05:40:00.632Z,4.20
2023-05-14T05:42:28.097Z,3.90
2023-05-14T05:44:56.173Z,3.85
2023-05-14T05:47:23.692Z,3.83
2023-05-14T05:49:51.203Z,4.13
2023-05-14T05:52:18.794Z,4.20
2023-05-14T05:54:46.303Z,3.67
2023-05-14T05:57:15.074Z,3.78
2023-05-14T05:59:42.555Z,4.00
2023-05-14T06:02:10.059Z,3.58
2023-05-14T06:04:37.674Z,3.42
2023-05-14T06:07:05.606Z,3.60
2023-05-14T06:09:33.075Z,3.85
2023-05-14T06:12:00.612Z,3.75
2023-05-14T06:14:29.486Z,3.30
2023-05-14T06:16:57.260Z,3.45
2023-05-14T06:19:24.861Z,4.65
2023-05-14T06:21:52.416Z,3.83
2023-05-14T06:24:19.972Z,4.18
2023-05-14T06:26:48.731Z,3.47
2023-05-14T06:29:16.212Z,4.03
2023-05-14T06:31:45.143Z,3.85
2023-05-14T06:34:12.641Z,2.65
2023-05-14T06:36:40.139Z,4.60
2023-05-14T06:39:07.640Z,2.88
2023-05-14T06:41:35.211Z,3.58
2023-05-14T06:44:02.634Z,3.30
2023-05-14T06:46:30.136Z,4.18
2023-05-14T06:48:59.614Z,4.40
2023-05-14T06:51:27.219Z,2.85
2023-05-14T06:53:55.681Z,3.97
2023-05-14T06:58:50.944Z,2.80
2023-05-14T07:01:18.444Z,3.20
2023-05-14T07:03:45.976Z,3.35
2023-05-14T07:06:14.870Z,4.22
2023-05-14T07:08:45.798Z,3.42
2023-05-14T07:11:14.166Z,4.10
2023-05-14T07:13:42.072Z,2.72
2023-05-14T07:16:10.437Z,3.28
2023-05-14T07:18:38.064Z,3.20
2023-05-14T07:21:06.522Z,3.65
2023-05-14T07:26:04.140Z,2.90
2023-05-14T07:28:31.665Z,1.98
2023-05-14T07:30:59.476Z,3.45
2023-05-14T07:33:27.501Z,3.13
2023-05-14T07:35:55.036Z,2.70
2023-05-14T07:38:22.648Z,1.70
2023-05-14T07:40:51.417Z,3.58
2023-05-14T07:43:18.886Z,2.72
2023-05-14T07:45:46.462Z,2.78
2023-05-14T07:48:14.107Z,2.92
2023-05-14T07:50:41.627Z,2.90
2023-05-14T07:53:09.172Z,2.97
2023-05-14T07:55:36.643Z,2.95
2023-05-14T07:58:05.514Z,3.45
2023-05-14T08:00:32.976Z,2.80
2023-05-14T08:03:00.935Z,3.08
2023-05-14T08:05:28.449Z,3.40
2023-05-14T08:07:55.913Z,2.70
2023-05-14T08:10:23.730Z,2.30
2023-05-14T08:12:51.395Z,2.92
2023-05-14T08:15:20.202Z,2.75
2023-05-14T08:17:47.656Z,3.10
2023-05-14T08:20:15.160Z,2.92
2023-05-14T08:22:42.645Z,2.75
2023-05-14T08:25:10.578Z,2.65
2023-05-14T08:27:38.169Z,2.83
2023-05-14T08:30:07.249Z,2.95
2023-05-14T08:32:38.216Z,2.40
2023-05-14T08:35:06.734Z,2.50
2023-05-14T08:40:01.590Z,2.88
2023-05-14T08:42:29.993Z,2.55
2023-05-14T08:47:26.925Z,2.95
2023-05-14T08:50:01.947Z,3.20
2023-05-14T08:52:29.718Z,3.33
2023-05-14T08:54:58.151Z,2.63
2023-05-14T08:59:54.330Z,3.47
2023-05-14T09:02:24.657Z,3.17
2023-05-14T09:04:57.024Z,2.80
2023-05-14T09:07:24.771Z,2.90
2023-05-14T09:09:52.811Z,2.95
2023-05-14T09:12:20.717Z,2.63
2023-05-14T09:14:49.905Z,2.50
2023-05-14T09:17:17.678Z,3.25
2023-05-14T09:19:48.942Z,3.63
2023-05-14T09:22:18.779Z,3.85
2023-05-14T09:24:46.714Z,3.33
2023-05-14T09:27:20.143Z,3.42
2023-05-14T09:29:48.730Z,2.70
2023-05-14T09:32:16.211Z,3.38
2023-05-14T09:34:43.729Z,2.97
2023-05-14T09:37:11.267Z,3.05
2023-05-14T09:39:40.480Z,3.47
2023-05-14T09:42:08.450Z,3.05
2023-05-14T09:44:38.088Z,3.33
2023-05-14T09:47:06.567Z,2.92
2023-05-14T09:49:35.266Z,3.38
2023-05-14T09:52:03.753Z,3.10
2023-05-14T09:54:32.897Z,2.92
2023-05-14T09:57:01.768Z,3.08
2023-05-14T09:59:29.466Z,2.78
2023-05-14T10:01:59.151Z,3.28
2023-05-14T10:04:26.777Z,3.45
2023-05-14T10:06:54.762Z,2.72
2023-05-14T10:09:26.189Z,3.50
2023-05-14T10:11:57.428Z,2.88
2023-05-14T10:14:34.397Z,2.28
2023-05-14T10:17:02.734Z,2.55
2023-05-14T10:19:35.001Z,3.60
2023-05-14T10:22:06.067Z,3.80
2023-05-14T10:24:34.225Z,3.22
2023-05-14T10:27:02.124Z,2.00
2023-05-14T10:29:34.954Z,2.83
2023-05-14T10:32:06.238Z,2.90
2023-05-14T10:34:37.447Z,2.80
2023-05-14T10:37:07.123Z,2.38
2023-05-14T10:39:45.648Z,2.83
2023-05-14T10:42:14.240Z,3.45
2023-05-14T10:44:49.179Z,2.53
2023-05-14T10:47:17.835Z,2.45
2023-05-14T10:49:48.936Z,2.70
2023-05-14T10:52:19.145Z,2.70
2023-05-14T10:54:51.991Z,2.40
2023-05-14T10:57:20.273Z,2.30
2023-05-14T10:59:53.139Z,2.50
2023-05-14T11:02:23.075Z,2.60
2023-05-14T11:04:56.565Z,2.83
2023-05-14T11:07:28.150Z,5.57
2023-05-14T11:10:01.684Z,3.70
2023-05-14T11:12:29.461Z,2.70
2023-05-14T11:15:00.696Z,3.63
2023-05-14T11:17:29.404Z,2.75
2023-05-14T11:19:57.584Z,2.75
2023-05-14T11:22:25.645Z,2.42
2023-05-14T11:24:54.253Z,1.90
2023-05-14T11:27:22.904Z,2.50
2023-05-14T11:29:51.528Z,2.65
2023-05-14T11:32:21.249Z,2.88
2023-05-14T11:34:48.896Z,2.70
2023-05-14T11:37:17.555Z,2.55
2023-05-14T11:39:49.981Z,2.60
2023-05-14T11:42:19.364Z,3.60
2023-05-14T11:44:48.927Z,2.60
2023-05-14T11:47:18.144Z,2.95
2023-05-14T11:49:47.292Z,2.80
2023-05-14T11:52:16.050Z,3.65
2023-05-14T11:54:44.832Z,3.22
2023-05-14T11:57:13.963Z,2.58
2023-05-14T11:59:41.862Z,2.90
2023-05-14T12:02:11.593Z,3.63
2023-05-14T12:04:39.732Z,2.63
2023-05-14T12:07:13.107Z,2.60
2023-05-14T12:09:44.218Z,2.47
2023-05-14T12:12:13.604Z,2.65
2023-05-14T12:14:42.802Z,2.88
2023-05-14T12:17:15.273Z,2.47
2023-05-14T12:19:44.039Z,2.60
2023-05-14T12:22:15.669Z,3.05
2023-05-14T12:24:44.481Z,2.60
2023-05-14T12:27:11.984Z,2.90
2023-05-14T12:29:39.970Z,3.10
2023-05-14T12:32:11.026Z,2.65
2023-05-14T12:34:39.284Z,1.95
2023-05-14T12:37:07.108Z,2.85
2023-05-14T12:39:36.095Z,2.35
2023-05-14T12:42:03.690Z,2.20
2023-05-14T12:44:31.214Z,2.10
2023-05-14T12:46:58.782Z,2.33
2023-05-14T12:49:26.360Z,2.17
2023-05-14T12:52:07.736Z,5.70
2023-05-14T12:54:41.640Z,6.00
2023-05-14T12:57:10.288Z,3.33
2023-05-14T12:59:37.783Z,3.00
2023-05-14T13:02:05.310Z,2.53
2023-05-14T13:04:32.852Z,2.50
2023-05-14T13:07:00.552Z,2.55
2023-05-14T13:09:28.649Z,2.20
2023-05-14T13:11:57.504Z,2.35
2023-05-14T13:14:25.011Z,2.55
2023-05-14T13:16:52.642Z,2.20
2023-05-14T13:19:20.136Z,2.30
2023-05-14T13:21:47.704Z,2.45
2023-05-14T13:24:15.170Z,2.20
2023-05-14T13:26:44.442Z,2.08
2023-05-14T13:29:13.394Z,2.35
2023-05-14T13:31:41.241Z,2.40
2023-05-14T13:34:10.091Z,2.17
2023-05-14T13:36:39.628Z,2.10
2023-05-14T13:39:07.199Z,1.83
2023-05-14T13:41:35.650Z,2.30
2023-05-14T13:44:03.118Z,2.75
2023-05-14T13:46:32.060Z,2.25
2023-05-14T13:48:59.766Z,2.58
2023-05-14T13:51:27.317Z,2.47
2023-05-14T13:56:27.136Z,2.40
2023-05-14T13:58:54.645Z,2.55
2023-05-14T14:01:23.222Z,2.65
2023-05-14T14:03:52.284Z,2.17
2023-05-14T14:06:19.762Z,2.17
2023-05-14T14:08:47.184Z,1.83
2023-05-14T14:11:14.640Z,2.03
2023-05-14T14:13:43.726Z,2.35
2023-05-14T14:16:12.548Z,2.08
2023-05-14T14:18:40.058Z,2.35
2023-05-14T14:21:09.340Z,2.10
2023-05-14T14:23:36.909Z,2.15
2023-05-14T14:26:04.617Z,1.40
2023-05-14T14:28:32.128Z,1.95
2023-05-14T14:30:59.571Z,1.98
2023-05-14T14:33:27.252Z,1.80
2023-05-14T14:35:54.730Z,1.73
2023-05-14T14:38:23.536Z,1.98
2023-05-14T14:40:51.275Z,2.00
2023-05-14T14:43:18.790Z,2.17
2023-05-14T14:45:48.308Z,1.70
2023-05-14T14:48:24.433Z,2.22
2023-05-14T14:50:52.599Z,2.03
2023-05-14T14:53:20.128Z,2.03
2023-05-14T14:55:49.027Z,1.80
2023-05-14T14:58:16.593Z,1.58
2023-05-14T15:00:44.452Z,1.73
2023-05-14T15:03:12.464Z,1.75
2023-05-14T15:05:39.990Z,1.60
2023-05-14T15:08:07.549Z,1.85
2023-05-14T15:10:37.669Z,2.03
2023-05-14T15:13:07.589Z,1.60
2023-05-14T15:15:36.352Z,1.88
2023-05-14T15:18:04.226Z,1.85
2023-05-14T15:20:31.921Z,1.55
2023-05-14T15:22:59.435Z,2.00
2023-05-14T15:25:27.760Z,2.13
2023-05-14T15:27:55.379Z,1.75
2023-05-14T15:30:24.176Z,1.80
2023-05-14T15:32:51.777Z,2.08
2023-05-14T15:35:19.510Z,2.17
2023-05-14T15:37:46.997Z,2.20
2023-05-14T15:40:14.537Z,1.88
2023-05-14T15:42:43.701Z,1.85
2023-05-14T15:45:12.822Z,1.75
2023-05-14T15:47:42.041Z,1.98
2023-05-14T15:50:09.972Z,1.80
2023-05-14T15:52:39.019Z,1.85
2023-05-14T15:55:07.435Z,1.63
2023-05-14T15:57:35.098Z,1.95
2023-05-14T16:00:05.991Z,1.52
2023-05-14T16:02:33.550Z,1.80
2023-05-14T16:05:02.395Z,1.58
2023-05-14T16:07:29.898Z,1.63
2023-05-14T16:09:57.365Z,1.90
2023-05-14T16:12:24.807Z,1.70
2023-05-14T16:14:52.323Z,1.77
2023-05-14T16:17:19.776Z,1.80
2023-05-14T16:19:47.206Z,1.70
2023-05-14T16:22:16.120Z,1.88
2023-05-14T16:24:44.680Z,1.65
2023-05-14T16:27:12.437Z,1.88
2023-05-14T16:29:39.871Z,1.73
2023-05-14T16:32:07.806Z,1.45
2023-05-14T16:34:35.305Z,1.73
2023-05-14T16:37:02.785Z,1.77
2023-05-14T16:39:31.665Z,1.60
2023-05-14T16:41:59.158Z,1.75
2023-05-14T16:44:26.597Z,2.17
2023-05-14T16:46:54.046Z,2.17
2023-05-14T16:49:22.401Z,2.00
2023-05-14T16:51:49.947Z,2.22
2023-05-14T16:54:17.410Z,2.00
2023-05-14T16:56:47.943Z,2.10
2023-05-14T16:59:15.773Z,2.15
2023-05-14T17:01:43.787Z,2.35
2023-05-14T17:04:11.582Z,2.05
2023-05-14T17:06:39.130Z,2.10
2023-05-14T17:09:06.899Z,2.20
2023-05-14T17:11:34.366Z,2.17
2023-05-14T17:14:03.169Z,2.08
2023-05-14T17:16:30.660Z,2.45
2023-05-14T17:18:58.221Z,1.75
2023-05-14T17:21:25.856Z,2.08
2023-05-14T17:23:53.326Z,2.05
2023-05-14T17:26:21.129Z,2.25
2023-05-14T17:28:48.579Z,2.30
2023-05-14T17:31:17.402Z,1.60
2023-05-14T17:33:44.918Z,2.10
2023-05-14T17:36:12.428Z,2.28
2023-05-14T17:38:40.993Z,2.28
2023-05-14T17:41:08.474Z,2.20
2023-05-14T17:43:35.944Z,2.10
2023-05-14T17:46:03.605Z,1.90
2023-05-14T17:48:32.417Z,2.13
2023-05-14T17:50:59.926Z,1.92
2023-05-14T17:53:27.429Z,1.98
2023-05-14T17:55:54.958Z,2.38
2023-05-14T17:58:22.550Z,2.08
2023-05-14T18:00:50.024Z,2.00
2023-05-14T18:03:20.115Z,2.00
2023-05-14T18:05:49.119Z,1.92
2023-05-14T18:08:16.577Z,1.83
2023-05-14T18:10:46.882Z,1.90
2023-05-14T18:13:14.378Z,1.95
2023-05-14T18:15:41.967Z,1.92
2023-05-14T18:18:09.474Z,2.60
2023-05-14T18:20:37.174Z,1.77
2023-05-14T18:23:05.976Z,2.15
2023-05-14T18:25:33.449Z,2.25
2023-05-14T18:28:00.933Z,2.30
2023-05-14T18:30:28.399Z,2.55
2023-05-14T18:32:55.888Z,2.03
2023-05-14T18:35:23.409Z,2.33
2023-05-14T18:37:52.990Z,2.78
2023-05-14T18:40:22.060Z,2.33
2023-05-14T18:42:49.515Z,2.20
2023-05-14T18:45:17.194Z,2.15
2023-05-14T18:47:44.801Z,1.90
2023-05-14T18:50:12.492Z,2.00
2023-05-14T18:52:39.971Z,2.47
2023-05-14T18:55:08.263Z,2.38
2023-05-14T19:00:06.120Z,2.72
2023-05-14T19:02:33.891Z,2.97
2023-05-14T19:05:01.492Z,2.67
2023-05-14T19:07:30.212Z,1.58
2023-05-14T19:09:57.715Z,2.63
2023-05-14T19:12:25.189Z,2.42
2023-05-14T19:14:53.961Z,2.80
2023-05-14T19:17:22.052Z,2.58
2023-05-14T19:19:49.599Z,2.70
2023-05-14T19:22:17.329Z,2.42
2023-05-14T19:24:44.788Z,2.92
2023-05-14T19:27:13.737Z,2.90
2023-05-14T19:29:41.164Z,2.90
2023-05-14T19:32:10.399Z,2.33
2023-05-14T19:34:37.960Z,2.97
2023-05-14T19:37:06.269Z,2.42
2023-05-14T19:42:01.206Z,2.58
2023-05-14T19:44:30.699Z,2.40
2023-05-14T19:46:58.374Z,2.65
2023-05-14T19:49:27.315Z,2.05
2023-05-14T19:51:54.811Z,2.58
2023-05-14T19:54:22.284Z,2.45
2023-05-14T19:56:49.790Z,2.25
2023-05-14T19:59:17.242Z,2.30
2023-05-14T20:01:44.852Z,2.58
2023-05-14T20:04:13.934Z,2.10
2023-05-14T20:06:47.090Z,2.10
2023-05-14T20:09:15.381Z,1.92
2023-05-14T20:14:10.222Z,2.33
2023-05-14T20:16:38.162Z,2.03
2023-05-14T20:19:05.783Z,2.38
2023-05-14T20:21:33.245Z,2.65
2023-05-14T20:24:02.216Z,2.45
2023-05-14T20:26:30.045Z,2.85
2023-05-14T20:28:57.530Z,2.72
2023-05-14T20:31:25.182Z,2.45
2023-05-14T20:33:52.753Z,2.70
2023-05-14T20:36:20.462Z,2.72
2023-05-14T20:38:48.271Z,2.70
2023-05-14T20:41:17.085Z,3.40
2023-05-14T20:43:44.646Z,3.38
2023-05-14T20:46:12.720Z,2.75
2023-05-14T20:48:40.206Z,2.47
2023-05-14T20:51:07.742Z,2.33
2023-05-14T20:53:35.349Z,2.50
2023-05-14T20:56:02.795Z,2.85
2023-05-14T20:58:31.602Z,2.90
2023-05-14T21:01:00.514Z,3.50
2023-05-14T21:03:28.261Z,2.78
2023-05-14T21:05:56.654Z,2.97
2023-05-14T21:10:51.632Z,2.85
2023-05-14T21:13:19.068Z,2.90
2023-05-14T21:15:47.943Z,2.47
2023-05-14T21:18:15.620Z,3.00
2023-05-14T21:20:43.140Z,2.70
2023-05-14T21:23:10.650Z,3.00
2023-05-14T21:25:38.187Z,3.60
2023-05-14T21:28:05.880Z,3.65
2023-05-14T21:30:33.323Z,2.63
2023-05-14T21:33:02.190Z,3.15
2023-05-14T21:35:29.797Z,2.63
2023-05-14T21:37:57.301Z,2.88
2023-05-14T21:40:24.736Z,2.83
2023-05-14T21:42:52.220Z,2.60
2023-05-14T21:45:21.098Z,2.63
2023-05-14T21:47:49.737Z,2.33
2023-05-14T21:50:18.713Z,2.45
2023-05-14T21:52:46.600Z,2.35
2023-05-14T21:55:14.184Z,2.03
2023-05-14T21:57:41.707Z,2.33
2023-05-14T22:00:12.860Z,2.25
2023-05-14T22:02:40.569Z,2.97
2023-05-14T22:05:08.545Z,2.17
2023-05-14T22:07:37.346Z,2.22
2023-05-14T22:10:05.184Z,2.47
2023-05-14T22:12:32.623Z,2.60
2023-05-14T22:15:00.118Z,2.50
2023-05-14T22:17:27.813Z,2.80
2023-05-14T22:19:55.410Z,2.40
2023-05-14T22:22:25.905Z,2.30
2023-05-14T22:24:54.765Z,2.70
2023-05-14T22:27:24.964Z,2.25
2023-05-14T22:29:52.482Z,2.50
2023-05-14T22:32:19.989Z,2.55
2023-05-14T22:34:47.461Z,2.40
2023-05-14T22:37:15.545Z,2.30
2023-05-14T22:39:43.117Z,2.70
2023-05-14T22:42:11.993Z,2.47
2023-05-14T22:44:39.519Z,2.13
2023-05-14T22:47:07.220Z,2.53
2023-05-14T22:49:34.725Z,2.20
2023-05-14T22:52:02.220Z,2.38
2023-05-14T22:54:29.737Z,2.70
2023-05-14T22:56:57.193Z,2.78
2023-05-14T22:59:25.994Z,2.45
2023-05-14T23:01:53.472Z,2.58
2023-05-14T23:04:21.867Z,2.55
2023-05-14T23:09:16.719Z,1.90
2023-05-14T23:11:44.283Z,2.17
2023-05-14T23:14:11.929Z,2.40
2023-05-14T23:16:40.844Z,2.78
2023-05-14T23:19:08.510Z,2.38
2023-05-14T23:21:36.254Z,2.28
2023-05-14T23:24:03.709Z,2.63
2023-05-14T23:26:31.278Z,2.05
2023-05-14T23:28:58.803Z,2.10
2023-05-14T23:31:26.274Z,2.42
2023-05-14T23:33:55.126Z,2.33
2023-05-14T23:36:22.972Z,2.10
2023-05-14T23:38:50.723Z,2.72
2023-05-14T23:41:18.169Z,2.33
2023-05-14T23:43:45.675Z,2.30
2023-05-14T23:46:13.369Z,2.42
2023-05-14T23:48:40.882Z,2.70
2023-05-14T23:51:09.657Z,2.25
2023-05-14T23:53:37.314Z,2.47
2023-05-14T23:56:04.970Z,2.78
2023-05-14T23:58:32.880Z,1.90
